createdAt,value
2019-04-01T00:01:22.869Z,17.17
2019-04-01T00:03:52.472Z,18.30
2019-04-01T00:06:21.954Z,18.00
2019-04-01T00:08:51.485Z,17.53
2019-04-01T00:11:21.050Z,17.83
2019-04-01T00:13:50.531Z,19.70
2019-04-01T00:16:20.058Z,18.40
2019-04-01T00:19:02.356Z,17.37
2019-04-01T00:21:21.843Z,19.37
2019-04-01T00:23:51.337Z,18.90
2019-04-01T00:26:20.904Z,16.30
2019-04-01T00:28:50.471Z,16.83
2019-04-01T00:31:19.937Z,16.40
2019-04-01T00:33:49.424Z,16.43
2019-04-01T00:36:18.919Z,17.00
2019-04-01T00:38:48.500Z,16.47
2019-04-01T00:41:18.174Z,15.80
2019-04-01T00:43:55.021Z,16.67
2019-04-01T00:46:24.957Z,15.87
2019-04-01T00:48:54.653Z,15.70
2019-04-01T00:51:24.359Z,17.13
2019-04-01T00:53:53.770Z,15.87
2019-04-01T00:56:23.277Z,15.83
2019-04-01T00:58:52.853Z,15.30
2019-04-01T01:01:22.497Z,15.63
2019-04-01T01:03:51.986Z,16.83
2019-04-01T01:06:21.447Z,16.40
2019-04-01T01:08:50.981Z,15.93
2019-04-01T01:11:21.422Z,16.97
2019-04-01T01:13:50.849Z,16.57
2019-04-01T01:16:20.381Z,16.37
2019-04-01T01:18:49.881Z,15.97
2019-04-01T01:21:19.305Z,16.30
2019-04-01T01:23:48.812Z,15.23
2019-04-01T01:26:18.297Z,15.53
2019-04-01T01:28:47.718Z,15.07
2019-04-01T01:31:17.289Z,15.57
2019-04-01T01:33:46.779Z,15.43
2019-04-01T01:36:16.264Z,15.90
2019-04-01T01:38:50.786Z,15.17
2019-04-01T01:41:20.207Z,15.50
2019-04-01T01:43:50.709Z,14.83
2019-04-01T01:46:20.129Z,14.90
2019-04-01T01:48:49.833Z,15.63
2019-04-01T01:51:19.321Z,15.30
2019-04-01T01:53:48.754Z,14.93
2019-04-01T01:56:18.249Z,14.33
2019-04-01T01:58:47.907Z,15.97
2019-04-01T02:01:17.341Z,15.80
2019-04-01T02:03:46.811Z,15.03
2019-04-01T02:06:16.365Z,15.60
2019-04-01T02:08:45.792Z,15.97
2019-04-01T02:11:15.292Z,15.70
2019-04-01T02:13:44.920Z,15.63
2019-04-01T02:16:14.543Z,15.87
2019-04-01T02:18:44.277Z,16.70
2019-04-01T02:21:13.697Z,15.00
2019-04-01T02:23:43.120Z,16.10
2019-04-01T02:26:12.571Z,17.03
2019-04-01T02:28:41.996Z,16.47
2019-04-01T02:31:12.698Z,16.10
2019-04-01T02:33:42.193Z,14.67
2019-04-01T02:36:11.803Z,15.73
2019-04-01T02:38:41.234Z,16.57
2019-04-01T02:41:10.827Z,16.87
2019-04-01T02:43:40.312Z,16.93
2019-04-01T02:46:09.929Z,16.80
2019-04-01T02:48:39.454Z,16.80
2019-04-01T02:51:08.942Z,17.53
2019-04-01T02:53:38.509Z,16.20
2019-04-01T02:56:08.082Z,16.57
2019-04-01T02:58:39.459Z,17.57
2019-04-01T03:01:09.075Z,17.83
2019-04-01T03:03:38.495Z,16.90
2019-04-01T03:06:08.029Z,17.67
2019-04-01T03:08:37.582Z,17.97
2019-04-01T03:11:10.391Z,16.60
2019-04-01T03:13:38.307Z,17.77
2019-04-01T03:16:07.818Z,17.20
2019-04-01T03:18:37.321Z,22.03
2019-04-01T03:21:06.917Z,22.87
2019-04-01T03:23:36.326Z,19.77
2019-04-01T03:26:05.888Z,20.40
2019-04-01T03:28:35.404Z,20.90
2019-04-01T03:31:05.054Z,18.97
2019-04-01T03:33:34.526Z,19.37
2019-04-01T03:36:04.147Z,19.83
2019-04-01T03:38:33.581Z,19.60
2019-04-01T03:41:03.022Z,21.13
2019-04-01T03:43:32.667Z,19.33
2019-04-01T03:46:02.153Z,21.10
2019-04-01T03:48:31.686Z,22.13
2019-04-01T03:51:01.122Z,23.23
2019-04-01T03:53:30.705Z,24.57
2019-04-01T03:56:00.266Z,25.30
2019-04-01T03:58:29.881Z,23.87
2019-04-01T04:00:59.468Z,23.57
2019-04-01T04:03:29.001Z,21.07
2019-04-01T04:05:58.633Z,21.33
2019-04-01T04:08:28.138Z,20.97
2019-04-01T04:10:57.699Z,22.40
2019-04-01T04:13:27.262Z,21.90
2019-04-01T04:15:56.997Z,20.10
2019-04-01T04:18:26.561Z,19.90
2019-04-01T04:20:56.059Z,19.07
2019-04-01T04:23:25.651Z,20.40
2019-04-01T04:25:55.221Z,19.43
2019-04-01T04:28:24.723Z,19.67
2019-04-01T04:30:54.298Z,20.83
2019-04-01T04:33:26.665Z,20.40
2019-04-01T04:35:56.165Z,21.83
2019-04-01T04:38:25.654Z,20.10
2019-04-01T04:40:55.254Z,20.93
2019-04-01T04:43:24.876Z,20.83
2019-04-01T04:45:54.644Z,20.37
2019-04-01T04:48:24.181Z,21.30
2019-04-01T04:50:53.645Z,20.33
2019-04-01T04:53:23.149Z,21.00
2019-04-01T04:55:52.714Z,22.47
2019-04-01T04:58:22.311Z,21.23
2019-04-01T05:00:52.638Z,22.53
2019-04-01T05:03:22.164Z,21.93
2019-04-01T05:05:51.655Z,21.80
2019-04-01T05:08:21.165Z,21.63
2019-04-01T05:10:50.647Z,21.87
2019-04-01T05:13:30.190Z,21.93
2019-04-01T05:16:01.529Z,21.57
2019-04-01T05:20:16.348Z,21.77
2019-04-01T05:21:19.530Z,22.10
2019-04-01T05:24:10.704Z,22.47
2019-04-01T05:26:42.836Z,21.50
2019-04-01T05:29:15.208Z,22.87
2019-04-01T05:31:53.777Z,23.80
2019-04-01T05:34:25.459Z,23.20
2019-04-01T05:39:58.981Z,20.93
2019-04-01T05:42:36.422Z,22.30
2019-04-01T05:45:07.687Z,23.07
2019-04-01T05:51:20.759Z,28.83
2019-04-01T05:53:55.102Z,27.03
2019-04-01T05:56:49.034Z,28.13
2019-04-01T05:59:23.061Z,29.37
2019-04-01T06:01:56.412Z,28.00
2019-04-01T06:04:25.693Z,28.57
2019-04-01T06:09:39.487Z,30.77
2019-04-01T06:12:14.937Z,32.27
2019-04-01T06:15:16.435Z,32.40
2019-04-01T06:18:10.172Z,34.00
2019-04-01T06:20:18.447Z,33.13
2019-04-01T06:22:48.262Z,32.73
2019-04-01T06:28:17.940Z,32.80
2019-04-01T06:30:47.800Z,31.83
2019-04-01T06:33:19.083Z,34.47
2019-04-01T06:36:13.307Z,33.63
2019-04-01T06:38:23.114Z,33.83
2019-04-01T06:40:52.798Z,34.63
2019-04-01T06:43:22.581Z,31.83
2019-04-01T06:45:52.342Z,32.90
2019-04-01T06:48:22.025Z,31.57
2019-04-01T06:51:16.291Z,36.67
2019-04-01T06:53:51.314Z,30.90
2019-04-01T06:56:39.253Z,32.23
2019-04-01T06:59:10.594Z,26.07
2019-04-01T07:01:59.313Z,28.70
2019-04-01T07:04:29.153Z,26.30
2019-04-01T07:06:58.887Z,25.60
2019-04-01T07:09:28.540Z,25.83
2019-04-01T07:11:58.319Z,27.80
2019-04-01T07:14:46.330Z,26.57
2019-04-01T07:17:14.445Z,24.67
2019-04-01T07:19:44.125Z,24.80
2019-04-01T07:22:19.720Z,23.53
2019-04-01T07:28:31.214Z,21.23
2019-04-01T07:31:00.862Z,20.00
2019-04-01T07:33:30.539Z,19.93
2019-04-01T07:36:00.285Z,17.50
2019-04-01T07:38:30.155Z,13.80
2019-04-01T07:40:59.998Z,16.03
2019-04-01T07:43:30.404Z,14.30
2019-04-01T07:46:15.857Z,14.37
2019-04-01T07:48:45.841Z,13.53
2019-04-01T07:51:25.649Z,14.93
2019-04-01T07:54:01.988Z,18.43
2019-04-01T07:56:38.306Z,17.97
2019-04-01T07:59:08.016Z,19.07
2019-04-01T08:03:01.790Z,19.60
2019-04-01T08:08:15.083Z,18.00
2019-04-01T08:10:46.476Z,18.77
2019-04-01T08:13:17.993Z,19.10
2019-04-01T08:15:53.194Z,20.03
2019-04-01T08:19:15.798Z,18.63
2019-04-01T08:24:18.173Z,20.70
2019-04-01T08:27:03.124Z,18.93
2019-04-01T08:29:32.789Z,18.57
2019-04-01T08:32:14.027Z,17.60
2019-04-01T08:34:51.509Z,18.70
2019-04-01T09:11:39.655Z,16.80
2019-04-01T09:20:46.560Z,12.90
2019-04-01T09:23:41.969Z,14.40
2019-04-01T09:26:04.106Z,15.27
2019-04-01T09:28:36.876Z,13.70
2019-04-01T09:31:10.299Z,14.37
2019-04-01T09:33:39.978Z,12.90
2019-04-01T09:36:10.261Z,12.67
2019-04-01T09:45:10.864Z,12.80
2019-04-01T09:47:40.453Z,12.97
2019-04-01T09:50:40.762Z,13.40
2019-04-01T09:56:44.757Z,13.73
2019-04-01T09:59:14.569Z,12.83
2019-04-01T10:01:44.256Z,13.63
2019-04-01T10:04:28.658Z,14.63
2019-04-01T10:07:02.947Z,14.07
2019-04-01T10:09:46.164Z,14.13
2019-04-01T10:12:20.433Z,14.63
2019-04-01T10:23:53.342Z,15.00
2019-04-01T10:38:22.445Z,8.80
2019-04-01T10:40:52.082Z,10.00
2019-04-01T10:43:21.833Z,10.57
2019-04-01T10:45:51.425Z,10.07
2019-04-01T10:48:21.077Z,10.63
2019-04-01T10:50:50.650Z,10.20
2019-04-01T10:53:20.367Z,10.03
2019-04-01T10:55:49.972Z,10.53
2019-04-01T10:58:19.590Z,9.53
2019-04-01T11:00:49.101Z,10.33
2019-04-01T11:03:18.677Z,10.00
2019-04-01T11:05:48.241Z,10.53
2019-04-01T11:08:17.920Z,10.00
2019-04-01T11:10:47.491Z,10.87
2019-04-01T11:13:16.999Z,9.67
2019-04-01T11:15:46.578Z,9.63
2019-04-01T11:18:25.398Z,9.60
2019-04-01T11:38:34.296Z,8.50
2019-04-01T11:41:03.547Z,8.00
2019-04-01T11:43:45.738Z,9.50
2019-04-01T11:46:12.835Z,8.93
2019-04-01T11:48:49.089Z,7.80
2019-04-01T11:51:49.594Z,7.00
2019-04-01T11:54:10.223Z,7.83
2019-04-01T11:56:56.710Z,8.13
2019-04-01T12:06:23.460Z,6.77
2019-04-01T12:14:50.293Z,8.90
2019-04-01T12:32:13.187Z,7.87
2019-04-01T12:34:42.844Z,8.07
2019-04-01T12:37:15.762Z,8.17
2019-04-01T12:45:15.777Z,8.40
2019-04-01T12:48:15.803Z,8.40
2019-04-01T12:51:00.956Z,8.83
2019-04-01T12:57:18.816Z,8.53
2019-04-01T13:02:59.665Z,7.80
2019-04-01T13:05:37.593Z,9.30
2019-04-01T13:08:20.977Z,9.17
2019-04-01T13:10:56.401Z,9.00
2019-04-01T13:13:37.809Z,8.67
2019-04-01T13:17:00.889Z,7.97
2019-04-01T13:18:48.078Z,9.10
2019-04-01T13:21:23.286Z,8.93
2019-04-01T13:23:59.775Z,8.03
2019-04-01T13:26:44.311Z,8.13
2019-04-01T13:29:13.970Z,8.43
2019-04-01T13:32:00.406Z,8.53
2019-04-01T13:34:55.527Z,8.03
2019-04-01T13:43:37.253Z,8.23
2019-04-01T13:48:57.836Z,8.60
2019-04-01T13:51:25.819Z,8.50
2019-04-01T13:54:07.955Z,7.53
2019-04-01T13:56:43.075Z,7.40
2019-04-01T13:59:17.486Z,7.50
2019-04-01T14:01:50.311Z,8.20
2019-04-01T14:04:22.300Z,7.90
2019-04-01T14:09:58.441Z,7.83
2019-04-01T14:15:21.525Z,8.03
2019-04-01T14:24:02.363Z,7.83
2019-04-01T14:24:37.592Z,7.73
2019-04-01T14:26:41.094Z,7.97
2019-04-01T14:29:18.954Z,8.07
2019-04-01T14:32:18.020Z,7.73
2019-04-01T14:34:30.862Z,8.63
2019-04-01T14:37:02.127Z,8.73
2019-04-01T14:39:34.763Z,7.97
2019-04-01T14:42:03.058Z,7.77
2019-04-01T14:44:32.640Z,8.60
2019-04-01T14:47:03.679Z,8.73
2019-04-01T14:49:33.577Z,7.63
2019-04-01T14:52:03.056Z,8.60
2019-04-01T14:54:34.094Z,9.00
2019-04-01T14:57:04.211Z,8.47
2019-04-01T14:59:33.650Z,8.67
2019-04-01T15:02:03.817Z,7.97
2019-04-01T15:04:34.808Z,9.07
2019-04-01T15:07:04.606Z,9.23
2019-04-01T15:09:34.120Z,8.90
2019-04-01T15:12:03.872Z,8.93
2019-04-01T15:14:33.445Z,9.07
2019-04-01T15:17:02.966Z,10.33
2019-04-01T15:19:32.663Z,9.57
2019-04-01T15:22:02.285Z,10.23
2019-04-01T15:24:31.744Z,9.67
2019-04-01T15:27:01.176Z,9.37
2019-04-01T15:29:30.749Z,9.57
2019-04-01T15:32:00.361Z,10.83
2019-04-01T15:34:29.866Z,9.97
2019-04-01T15:36:59.368Z,10.73
2019-04-01T15:39:28.843Z,10.87
2019-04-01T15:42:04.328Z,10.67
2019-04-01T15:44:51.159Z,10.63
2019-04-01T15:47:23.201Z,10.20
2019-04-01T15:49:52.759Z,11.83
2019-04-01T15:52:22.830Z,11.37
2019-04-01T15:54:52.464Z,12.60
2019-04-01T15:57:22.110Z,12.57
2019-04-01T15:59:51.773Z,11.70
2019-04-01T16:02:21.408Z,12.73
2019-04-01T16:04:51.162Z,13.17
2019-04-01T16:07:22.591Z,12.53
2019-04-01T16:09:52.281Z,13.33
2019-04-01T16:12:21.669Z,12.00
2019-04-01T16:14:51.093Z,12.47
2019-04-01T16:17:21.955Z,13.27
2019-04-01T16:19:52.577Z,12.73
2019-04-01T16:22:22.346Z,12.37
2019-04-01T16:24:51.846Z,12.70
2019-04-01T16:27:21.443Z,11.90
2019-04-01T16:29:50.991Z,14.20
2019-04-01T16:32:20.419Z,13.33
2019-04-01T16:34:49.921Z,12.60
2019-04-01T16:37:19.362Z,12.67
2019-04-01T16:39:49.200Z,12.77
2019-04-01T16:42:19.497Z,13.10
2019-04-01T16:44:49.314Z,12.87
2019-04-01T16:47:18.856Z,13.03
2019-04-01T16:49:48.388Z,13.70
2019-04-01T16:52:18.058Z,13.23
2019-04-01T16:54:58.568Z,13.63
2019-04-01T16:57:28.205Z,13.93
2019-04-01T16:59:57.882Z,14.07
2019-04-01T17:02:27.454Z,12.90
2019-04-01T17:05:00.231Z,14.00
2019-04-01T17:07:28.246Z,15.10
2019-04-01T17:09:58.285Z,15.13
2019-04-01T17:12:28.459Z,15.23
2019-04-01T17:14:58.307Z,16.33
2019-04-01T17:17:27.873Z,21.07
2019-04-01T17:19:57.359Z,20.20
2019-04-01T17:22:27.046Z,20.10
2019-04-01T17:24:57.429Z,23.00
2019-04-01T17:27:27.428Z,32.57
2019-04-01T17:29:56.995Z,30.73
2019-04-01T17:32:26.736Z,19.47
2019-04-01T17:34:56.383Z,18.17
2019-04-01T17:37:25.891Z,15.87
2019-04-01T17:39:55.569Z,14.67
2019-04-01T17:42:26.903Z,16.73
2019-04-01T17:45:02.498Z,13.83
2019-04-01T17:47:32.559Z,14.03
2019-04-01T17:50:02.129Z,13.20
2019-04-01T17:52:31.893Z,13.47
2019-04-01T17:55:01.393Z,17.20
2019-04-01T17:57:31.193Z,14.80
2019-04-01T18:00:00.912Z,14.53
2019-04-01T18:02:31.280Z,16.47
2019-04-01T18:05:02.718Z,14.20
2019-04-01T18:07:32.402Z,15.10
2019-04-01T18:10:02.006Z,15.70
2019-04-01T18:12:32.041Z,14.33
2019-04-01T18:15:01.634Z,15.80
2019-04-01T18:17:31.234Z,16.67
2019-04-01T18:20:00.889Z,17.70
2019-04-01T18:22:30.817Z,21.67
2019-04-01T18:25:00.321Z,21.00
2019-04-01T18:27:30.132Z,26.50
2019-04-01T18:29:59.679Z,30.83
2019-04-01T18:32:29.178Z,23.80
2019-04-01T18:34:58.717Z,25.43
2019-04-01T18:37:28.254Z,15.97
2019-04-01T18:39:57.760Z,15.27
2019-04-01T18:42:27.320Z,16.83
2019-04-01T18:44:56.893Z,16.03
2019-04-01T18:47:26.569Z,14.90
2019-04-01T18:49:56.070Z,14.60
2019-04-01T18:52:25.758Z,14.37
2019-04-01T18:54:55.333Z,13.83
2019-04-01T18:57:24.964Z,14.07
2019-04-01T18:59:54.387Z,15.47
2019-04-01T19:02:23.961Z,14.40
2019-04-01T19:04:53.583Z,13.83
2019-04-01T19:07:23.164Z,13.77
2019-04-01T19:10:05.604Z,14.40
2019-04-01T19:12:23.913Z,13.57
2019-04-01T19:14:53.487Z,15.10
2019-04-01T19:17:23.113Z,14.33
2019-04-01T19:19:52.613Z,13.83
2019-04-01T19:22:22.053Z,13.07
2019-04-01T19:24:51.563Z,13.40
2019-04-01T19:27:22.115Z,13.80
2019-04-01T19:29:51.906Z,13.47
2019-04-01T19:32:21.544Z,13.33
2019-04-01T19:34:51.116Z,14.73
2019-04-01T19:37:20.619Z,13.90
2019-04-01T19:39:50.130Z,13.50
2019-04-01T19:42:19.906Z,13.17
2019-04-01T19:44:49.590Z,13.70
2019-04-01T19:47:19.366Z,14.27
2019-04-01T19:49:48.908Z,14.20
2019-04-01T19:52:18.596Z,14.77
2019-04-01T19:54:48.017Z,19.57
2019-04-01T19:57:17.606Z,17.47
2019-04-01T19:59:47.332Z,16.63
2019-04-01T20:02:16.930Z,16.00
2019-04-01T20:04:46.729Z,15.20
2019-04-01T20:07:16.515Z,15.20
2019-04-01T20:09:46.383Z,16.07
2019-04-01T20:12:16.037Z,16.40
2019-04-01T20:14:45.531Z,15.63
2019-04-01T20:17:15.107Z,15.57
2019-04-01T20:19:46.513Z,14.83
2019-04-01T20:22:17.350Z,14.50
2019-04-01T20:24:47.918Z,13.80
2019-04-01T20:27:20.631Z,14.37
2019-04-01T20:29:51.592Z,14.57
2019-04-01T20:32:21.303Z,14.23
2019-04-01T20:34:56.762Z,13.57
2019-04-01T20:37:22.134Z,12.57
2019-04-01T20:39:51.628Z,12.10
2019-04-01T20:42:21.420Z,10.63
2019-04-01T20:44:50.998Z,12.40
2019-04-01T20:47:22.372Z,10.67
2019-04-01T20:49:51.868Z,11.03
2019-04-01T20:52:21.799Z,10.70
2019-04-01T20:54:51.467Z,11.17
2019-04-01T20:57:21.961Z,10.37
2019-04-01T20:59:51.657Z,10.70
2019-04-01T21:02:21.458Z,10.50
2019-04-01T21:04:50.903Z,9.70
2019-04-01T21:07:20.467Z,9.87
2019-04-01T21:09:50.047Z,9.23
2019-04-01T21:12:19.764Z,10.57
2019-04-01T21:14:49.305Z,14.27
2019-04-01T21:17:18.798Z,12.90
2019-04-01T21:19:48.373Z,13.17
2019-04-01T21:22:17.942Z,12.93
2019-04-01T21:24:47.513Z,13.03
2019-04-01T21:27:17.087Z,12.00
2019-04-01T21:29:46.698Z,13.13
2019-04-01T21:32:17.083Z,12.90
2019-04-01T21:34:46.783Z,12.00
2019-04-01T21:37:16.279Z,11.47
2019-04-01T21:39:45.916Z,10.13
2019-04-01T21:42:15.487Z,11.07
2019-04-01T21:44:46.934Z,10.33
2019-04-01T21:47:16.590Z,14.10
2019-04-01T21:49:47.188Z,9.47
2019-04-01T21:52:16.695Z,10.70
2019-04-01T21:54:46.116Z,9.90
2019-04-01T21:57:15.617Z,12.20
2019-04-01T21:59:46.007Z,11.47
2019-04-01T22:02:15.715Z,9.37
2019-04-01T22:04:45.278Z,7.77
2019-04-01T22:07:14.764Z,8.27
2019-04-01T22:09:44.363Z,8.27
2019-04-01T22:12:14.061Z,8.80
2019-04-01T22:14:43.770Z,9.00
2019-04-01T22:17:13.384Z,8.73
2019-04-01T22:19:42.807Z,9.30
2019-04-01T22:22:12.492Z,8.17
2019-04-01T22:24:41.899Z,8.53
2019-04-01T22:27:11.369Z,10.87
2019-04-01T22:29:40.857Z,9.67
2019-04-01T22:32:10.453Z,8.87
2019-04-01T22:34:40.022Z,8.60
2019-04-01T22:37:09.524Z,8.67
2019-04-01T22:39:38.957Z,9.27
2019-04-01T22:42:08.768Z,10.00
2019-04-01T22:44:38.184Z,9.80
2019-04-01T22:47:07.756Z,9.10
2019-04-01T22:49:37.346Z,8.73
2019-04-01T22:52:06.932Z,9.87
2019-04-01T22:54:37.579Z,9.17
2019-04-01T22:57:07.069Z,10.23
2019-04-01T22:59:36.486Z,10.77
2019-04-01T23:02:06.049Z,12.40
2019-04-01T23:04:37.066Z,12.10
2019-04-01T23:07:06.775Z,11.53
2019-04-01T23:09:36.332Z,11.67
2019-04-01T23:12:05.774Z,12.20
2019-04-01T23:14:35.267Z,12.30
2019-04-01T23:17:04.870Z,12.40
2019-04-01T23:19:34.918Z,11.87
2019-04-01T23:22:05.800Z,11.73
2019-04-01T23:24:35.230Z,11.70
2019-04-01T23:27:04.729Z,11.70
2019-04-01T23:29:34.266Z,11.80
2019-04-01T23:32:03.755Z,12.13
2019-04-01T23:34:33.275Z,12.73
2019-04-01T23:37:02.760Z,13.00
2019-04-01T23:39:32.255Z,12.33
2019-04-01T23:42:01.859Z,12.60
2019-04-01T23:44:31.361Z,11.97
2019-04-01T23:47:00.854Z,13.13
2019-04-01T23:49:30.364Z,12.17
2019-04-01T23:51:59.922Z,12.83
2019-04-01T23:54:31.017Z,12.17
2019-04-01T23:57:00.788Z,12.67
2019-04-01T23:59:30.277Z,13.17
